Time;durP1;ratioP1;P1;durP2;ratioP2;P2;SDS_P1;SDS_P2;PMS_P1;PMS_P2;Temp;Humidity;BMP_temperature;BMP_pressure;BME280_temperature;BME280_humidity;BME280_pressure;Samples;Min_cycle;Max_cycle;Signal;HPM_P1;HPM_P2
2022/06/22 00:00:35;;;;;;;0.00;0.00;;;14.00;99.90;;;;;;5113042;28;20048;-80
2022/06/22 00:03:03;;;;;;;0.00;0.00;;;13.90;99.90;;;;;;5095507;28;20098;-79
2022/06/22 00:05:37;;;;;;;0.00;0.00;;;13.90;99.90;;;;;;5078953;28;20063;-80
2022/06/22 00:08:06;;;;;;;0.00;0.00;;;13.90;99.90;;;;;;5112947;28;20051;-80
2022/06/22 00:10:52;;;;;;;0.00;0.00;;;13.90;99.90;;;;;;5078506;28;20091;-80
2022/06/22 00:13:21;;;;;;;0.00;0.00;;;13.80;99.90;;;;;;5112741;28;20044;-79
2022/06/22 00:15:59;;;;;;;0.00;0.00;;;13.70;99.90;;;;;;5111979;28;20127;-80
2022/06/22 00:18:27;;;;;;;0.00;0.00;;;13.70;99.90;;;;;;5113308;28;20098;-79
2022/06/22 00:20:56;;;;;;;0.00;0.00;;;13.60;99.90;;;;;;5112674;28;20044;-80
2022/06/22 00:23:27;;;;;;;0.00;0.00;;;13.60;99.90;;;;;;5112480;28;20044;-80
2022/06/22 00:25:58;;;;;;;0.00;0.00;;;13.60;99.90;;;;;;5078476;28;20043;-80
2022/06/22 00:28:50;;;;;;;0.00;0.00;;;13.60;99.90;;;;;;5112291;28;20047;-79
2022/06/22 00:31:28;;;;;;;0.00;0.00;;;13.50;99.90;;;;;;5078969;28;20044;-79
2022/06/22 00:34:13;;;;;;;0.00;0.00;;;13.40;99.90;;;;;;5112271;28;20395;-79
2022/06/22 00:36:50;;;;;;;0.00;0.00;;;13.30;99.90;;;;;;5077992;28;20036;-79
2022/06/22 00:39:22;;;;;;;0.05;0.05;;;13.30;99.90;;;;;;5078891;28;20055;-79
2022/06/22 00:41:56;;;;;;;0.00;0.00;;;13.30;99.90;;;;;;5078513;28;20044;-80
2022/06/22 00:44:25;;;;;;;0.00;0.00;;;13.30;99.90;;;;;;5095016;28;20055;-80
2022/06/22 00:47:31;;;;;;;0.00;0.00;;;13.30;99.90;;;;;;5078163;28;20362;-79
2022/06/22 00:50:09;;;;;;;0.00;0.00;;;13.20;99.90;;;;;;5056862;28;20060;-80
2022/06/22 00:52:46;;;;;;;0.00;0.00;;;13.10;99.90;;;;;;5056761;28;20118;-79
2022/06/22 00:55:20;;;;;;;0.00;0.00;;;13.10;99.90;;;;;;5056368;28;20098;-79
2022/06/22 00:57:54;;;;;;;0.00;0.00;;;13.10;99.90;;;;;;5040109;28;20516;-79
2022/06/22 01:00:26;;;;;;;0.00;0.00;;;13.00;99.90;;;;;;5057159;28;20087;-79
2022/06/22 01:02:56;;;;;;;0.00;0.00;;;13.10;99.90;;;;;;5056295;28;20064;-79
2022/06/22 01:05:36;;;;;;;0.00;0.00;;;13.10;99.90;;;;;;5056429;28;20504;-79
2022/06/22 01:08:37;;;;;;;0.00;0.00;;;13.10;99.90;;;;;;5056347;28;20424;-79
2022/06/22 01:12:16;;;;;;;0.00;0.00;;;12.90;99.90;;;;;;5036749;28;20135;-79
2022/06/22 01:13:56;;;;;;;0.00;0.00;;;12.90;99.90;;;;;;5036633;28;20107;-79
2022/06/22 01:16:34;;;;;;;0.00;0.00;;;12.90;99.90;;;;;;5036179;28;20076;-79
2022/06/22 01:19:34;;;;;;;0.00;0.00;;;12.80;99.90;;;;;;5052914;28;20145;-79
2022/06/22 01:22:38;;;;;;;0.30;0.30;;;12.80;99.90;;;;;;5013901;28;20045;-79
2022/06/22 01:25:22;;;;;;;0.00;0.00;;;12.80;99.90;;;;;;4994678;28;20060;-79
2022/06/22 01:27:48;;;;;;;0.00;0.00;;;12.70;99.90;;;;;;5013141;28;20447;-79
2022/06/22 01:30:27;;;;;;;0.00;0.00;;;12.50;99.90;;;;;;4996422;28;20038;-79
2022/06/22 01:32:53;;;;;;;0.00;0.00;;;12.60;99.90;;;;;;4980364;28;20058;-79
2022/06/22 01:35:26;;;;;;;0.00;0.00;;;12.60;99.90;;;;;;4980199;28;20492;-79
2022/06/22 01:37:52;;;;;;;0.00;0.00;;;12.70;99.90;;;;;;4980866;28;20129;-79
2022/06/22 01:40:24;;;;;;;0.00;0.00;;;12.50;99.90;;;;;;4996677;28;20065;-79
2022/06/22 01:43:07;;;;;;;0.75;0.00;;;12.50;99.90;;;;;;4996577;28;20050;-79
2022/06/22 01:45:45;;;;;;;0.00;0.00;;;12.50;99.90;;;;;;4980167;28;20405;-79
2022/06/22 01:48:19;;;;;;;0.00;0.00;;;12.50;99.90;;;;;;4996218;28;20522;-79
2022/06/22 01:50:58;;;;;;;0.00;0.00;;;12.50;99.90;;;;;;4996406;28;20065;-79
2022/06/22 01:53:36;;;;;;;0.00;0.00;;;12.50;99.90;;;;;;4995709;28;20451;-79
2022/06/22 01:56:12;;;;;;;0.00;0.00;;;12.50;99.90;;;;;;5030807;28;20046;-79
2022/06/22 01:59:01;;;;;;;0.00;0.00;;;12.50;99.90;;;;;;5031139;28;20121;-79
2022/06/22 02:01:52;;;;;;;0.00;0.00;;;12.50;99.90;;;;;;5093153;28;20088;-79
2022/06/22 02:04:25;;;;;;;0.00;0.00;;;12.40;99.90;;;;;;5110230;28;20395;-79
2022/06/22 02:10:11;;;;;;;0.10;0.10;;;12.30;99.90;;;;;;5092995;28;20055;-79
2022/06/22 02:12:43;;;;;;;3.90;0.17;;;12.30;99.90;;;;;;5092702;28;20064;-79
2022/06/22 02:15:23;;;;;;;0.00;0.00;;;12.30;99.90;;;;;;5109948;28;20051;-79
2022/06/22 02:17:51;;;;;;;2.30;0.25;;;12.20;99.90;;;;;;5075157;28;20496;-79
2022/06/22 02:20:28;;;;;;;0.00;0.00;;;12.10;99.90;;;;;;5075647;28;20494;-79
2022/06/22 02:23:00;;;;;;;0.05;0.00;;;12.10;99.90;;;;;;5076393;28;20048;-79
2022/06/22 02:25:30;;;;;;;0.00;0.00;;;12.20;99.90;;;;;;5075964;28;20052;-79
2022/06/22 02:27:56;;;;;;;0.00;0.00;;;12.10;99.90;;;;;;5076391;28;20040;-79
2022/06/22 02:30:23;;;;;;;0.00;0.00;;;12.10;99.90;;;;;;5076229;28;20052;-79
2022/06/22 02:32:48;;;;;;;0.03;0.00;;;12.20;99.90;;;;;;5109092;28;20040;-79
2022/06/22 02:35:15;;;;;;;0.00;0.00;;;12.00;99.90;;;;;;5092552;28;20040;-79
2022/06/22 02:37:50;;;;;;;0.10;0.00;;;11.90;99.90;;;;;;5092750;28;20045;-79
2022/06/22 02:40:20;;;;;;;0.98;0.35;;;11.90;99.90;;;;;;5076650;28;20103;-79
2022/06/22 02:45:31;;;;;;;0.10;0.10;;;11.90;99.90;;;;;;5092604;28;20401;-79
2022/06/22 02:48:03;;;;;;;0.00;0.00;;;11.90;99.90;;;;;;5075342;28;20052;-78
2022/06/22 02:50:42;;;;;;;0.00;0.00;;;11.90;99.90;;;;;;5109667;28;20143;-79
2022/06/22 02:53:25;;;;;;;0.75;0.00;;;11.80;99.90;;;;;;5076006;28;20040;-79
2022/06/22 02:55:53;;;;;;;0.00;0.00;;;11.80;99.90;;;;;;5079270;28;20472;-79
2022/06/22 02:58:28;;;;;;;0.22;0.00;;;11.70;99.90;;;;;;5079250;28;20127;-79
2022/06/22 03:00:55;;;;;;;2.85;0.00;;;11.80;99.90;;;;;;5079572;28;20372;-79
2022/06/22 03:03:21;;;;;;;0.00;0.00;;;11.80;99.90;;;;;;5079051;28;20398;-79
2022/06/22 03:05:51;;;;;;;0.00;0.00;;;11.70;99.90;;;;;;5079266;28;20086;-79
2022/06/22 03:08:19;;;;;;;0.43;0.08;;;11.70;99.90;;;;;;5112764;28;20043;-79
2022/06/22 03:10:50;;;;;;;0.10;0.00;;;11.70;99.90;;;;;;5112866;28;20040;-79
2022/06/22 03:13:53;;;;;;;0.00;0.00;;;11.70;99.90;;;;;;5113034;28;20086;-79
2022/06/22 03:16:25;;;;;;;0.00;0.00;;;11.60;99.90;;;;;;5034360;28;20122;-79
2022/06/22 03:18:52;;;;;;;0.00;0.00;;;11.60;99.90;;;;;;5035227;28;20401;-79
2022/06/22 03:21:21;;;;;;;0.00;0.00;;;11.50;99.90;;;;;;5034606;28;20095;-79
2022/06/22 03:24:06;;;;;;;0.00;0.00;;;11.50;99.90;;;;;;5034742;28;20045;-79
2022/06/22 03:26:58;;;;;;;;;;;11.50;99.90;;;;;;5034946;28;20057;-79
2022/06/22 03:29:30;;;;;;;0.00;0.00;;;11.40;99.90;;;;;;5032375;28;19921;-79
2022/06/22 03:32:23;;;;;;;0.00;0.00;;;11.40;99.90;;;;;;5034900;28;20053;-79
2022/06/22 03:35:02;;;;;;;0.00;0.00;;;11.40;99.90;;;;;;5034451;28;20064;-79
2022/06/22 03:37:56;;;;;;;0.00;0.00;;;11.30;99.90;;;;;;5034186;28;20064;-79
2022/06/22 03:40:42;;;;;;;0.00;0.00;;;11.40;99.90;;;;;;4956794;28;20063;-79
2022/06/22 03:43:32;;;;;;;0.00;0.00;;;11.40;99.90;;;;;;4956183;28;20043;-79
2022/06/22 03:46:14;;;;;;;0.00;0.00;;;11.40;99.90;;;;;;4921442;29;20531;-79
2022/06/22 03:48:52;;;;;;;4.63;0.47;;;11.40;99.90;;;;;;4921902;29;20066;-79
2022/06/22 03:51:31;;;;;;;0.05;0.00;;;11.40;99.90;;;;;;4921491;29;20056;-79
2022/06/22 03:54:09;;;;;;;0.00;0.00;;;11.50;99.90;;;;;;4921684;29;20055;-79
2022/06/22 03:56:41;;;;;;;0.00;0.00;;;11.40;99.90;;;;;;4940057;29;20503;-79
2022/06/22 03:59:08;;;;;;;0.00;0.00;;;11.30;99.90;;;;;;4924970;29;20062;-79
2022/06/22 04:01:36;;;;;;;0.10;0.00;;;11.30;99.90;;;;;;4956045;29;20047;-79
2022/06/22 04:04:03;;;;;;;0.00;0.00;;;11.40;99.90;;;;;;4924380;29;20063;-79
2022/06/22 04:06:35;;;;;;;0.22;0.00;;;11.40;99.90;;;;;;4924414;29;20136;-79
2022/06/22 04:09:07;;;;;;;0.00;0.00;;;11.40;99.90;;;;;;4940078;29;20055;-78
2022/06/22 04:11:44;;;;;;;0.05;0.00;;;11.40;99.90;;;;;;4956119;29;20381;-79
2022/06/22 04:14:33;;;;;;;0.00;0.00;;;11.40;99.90;;;;;;4923760;29;20048;-78
2022/06/22 04:17:05;;;;;;;0.15;0.05;;;11.40;99.90;;;;;;4950596;28;20053;-79
2022/06/22 04:19:43;;;;;;;0.00;0.00;;;11.50;99.90;;;;;;5017675;28;20057;-79
2022/06/22 04:22:22;;;;;;;0.00;0.00;;;11.40;99.90;;;;;;5014225;28;20055;-79
2022/06/22 04:24:58;;;;;;;0.00;0.00;;;11.50;99.90;;;;;;5115585;28;20039;-79
2022/06/22 04:27:40;;;;;;;0.00;0.00;;;11.50;99.90;;;;;;5081473;28;20101;-79
2022/06/22 04:30:12;;;;;;;0.00;0.00;;;11.50;99.90;;;;;;5115527;28;20035;-79
2022/06/22 04:33:00;;;;;;;0.00;0.00;;;11.60;99.90;;;;;;5115544;28;20503;-79
2022/06/22 04:35:29;;;;;;;0.17;0.00;;;11.70;99.90;;;;;;5081479;28;20052;-79
2022/06/22 04:38:02;;;;;;;0.00;0.00;;;11.70;99.90;;;;;;5081505;28;20047;-79
2022/06/22 04:40:40;;;;;;;0.00;0.00;;;11.80;99.90;;;;;;5115191;28;20055;-79
2022/06/22 04:43:08;;;;;;;0.15;0.08;;;11.90;99.90;;;;;;5081832;28;20109;-79
2022/06/22 04:45:40;;;;;;;0.00;0.00;;;12.00;99.90;;;;;;5115438;28;20088;-78
2022/06/22 04:48:24;;;;;;;0.00;0.00;;;11.90;99.90;;;;;;5081405;28;20058;-78
2022/06/22 04:50:58;;;;;;;0.00;0.00;;;12.00;99.90;;;;;;5115057;28;20035;-79
2022/06/22 04:53:39;;;;;;;0.00;0.00;;;12.10;99.90;;;;;;5115473;28;20100;-79
2022/06/22 04:56:12;;;;;;;0.00;0.00;;;12.10;99.90;;;;;;5080089;28;20402;-78
2022/06/22 04:58:44;;;;;;;0.00;0.00;;;12.00;99.90;;;;;;5080916;28;20093;-78
2022/06/22 05:01:17;;;;;;;0.00;0.00;;;12.10;99.90;;;;;;5114742;28;20048;-79
2022/06/22 05:03:43;;;;;;;0.00;0.00;;;12.20;99.90;;;;;;5080500;28;20448;-79
2022/06/22 05:06:20;;;;;;;0.00;0.00;;;12.20;99.90;;;;;;5114740;28;20122;-79
2022/06/22 05:08:53;;;;;;;0.22;0.00;;;12.30;99.90;;;;;;5114361;28;20487;-79
2022/06/22 05:11:38;;;;;;;0.05;0.00;;;12.30;99.90;;;;;;5080339;28;20055;-79
2022/06/22 05:14:11;;;;;;;0.00;0.00;;;12.40;99.90;;;;;;5114948;28;20098;-79
2022/06/22 05:16:37;;;;;;;0.00;0.00;;;12.40;99.90;;;;;;5097141;28;20043;-79
2022/06/22 05:19:03;;;;;;;0.00;0.00;;;12.50;99.90;;;;;;5114546;28;20095;-79
2022/06/22 05:21:41;;;;;;;0.00;0.00;;;12.50;99.90;;;;;;5080205;28;20055;-79
2022/06/22 05:24:32;;;;;;;0.00;0.00;;;12.60;99.90;;;;;;5114186;28;20437;-79
2022/06/22 05:27:00;;;;;;;0.00;0.00;;;12.70;99.90;;;;;;5115003;28;20043;-79
2022/06/22 05:29:38;;;;;;;0.00;0.00;;;12.70;99.90;;;;;;5114300;28;20475;-79
2022/06/22 05:32:18;;;;;;;0.00;0.00;;;12.80;99.90;;;;;;5080441;28;20392;-79
2022/06/22 05:34:46;;;;;;;0.00;0.00;;;12.90;99.90;;;;;;5080107;28;20415;-78
2022/06/22 05:37:20;;;;;;;0.10;0.10;;;13.00;99.90;;;;;;5080078;28;20032;-78
2022/06/22 05:39:46;;;;;;;0.00;0.00;;;13.10;99.90;;;;;;5114137;28;20066;-78
2022/06/22 05:42:14;;;;;;;0.00;0.00;;;13.20;99.90;;;;;;5097089;28;20043;-79
2022/06/22 05:44:40;;;;;;;0.00;0.00;;;13.40;99.90;;;;;;5079564;28;20055;-79
2022/06/22 05:47:16;;;;;;;0.00;0.00;;;13.70;99.90;;;;;;5114059;28;20044;-79
2022/06/22 05:49:56;;;;;;;0.00;0.00;;;14.20;99.90;;;;;;5080337;28;20039;-79
2022/06/22 05:52:40;;;;;;;0.00;0.00;;;14.80;99.90;;;;;;5080338;28;20043;-79
2022/06/22 05:55:27;;;;;;;0.00;0.00;;;15.10;99.90;;;;;;5079241;28;20058;-79
2022/06/22 05:58:02;;;;;;;0.40;0.13;;;15.20;99.90;;;;;;5097764;28;20051;-79
2022/06/22 06:00:44;;;;;;;0.20;0.20;;;15.10;99.90;;;;;;5079981;28;20490;-80
2022/06/22 06:03:10;;;;;;;0.00;0.00;;;14.90;99.90;;;;;;5097235;28;20062;-80
2022/06/22 06:05:44;;;;;;;0.00;0.00;;;14.90;99.90;;;;;;5080018;28;20051;-79
2022/06/22 06:08:18;;;;;;;0.75;0.50;;;14.80;99.90;;;;;;5079942;28;20109;-79
2022/06/22 06:10:44;;;;;;;0.00;0.00;;;14.80;99.90;;;;;;5114222;28;20043;-79
2022/06/22 06:13:15;;;;;;;0.00;0.00;;;14.80;99.90;;;;;;5096121;28;20552;-79
2022/06/22 06:15:41;;;;;;;0.00;0.00;;;14.80;99.90;;;;;;5079871;28;20043;-79
2022/06/22 06:18:15;;;;;;;0.00;0.00;;;15.00;99.90;;;;;;5113006;28;20131;-80
2022/06/22 06:20:47;;;;;;;0.00;0.00;;;15.30;99.90;;;;;;5114024;28;20105;-80
2022/06/22 06:23:20;;;;;;;0.00;0.00;;;15.60;99.90;;;;;;5079556;28;20078;-79
2022/06/22 06:29:06;;;;;;;0.00;0.00;;;15.70;99.90;;;;;;5096783;28;20048;-80
2022/06/22 06:31:56;;;;;;;1.17;0.28;;;15.70;99.90;;;;;;5093337;28;20059;-79
2022/06/22 06:34:27;;;;;;;0.00;0.00;;;15.60;99.90;;;;;;5113783;28;20384;-80
2022/06/22 06:37:06;;;;;;;0.52;0.13;;;15.60;99.90;;;;;;5113116;28;20040;-79
2022/06/22 06:39:37;;;;;;;0.30;0.00;;;15.70;99.90;;;;;;5113712;28;20047;-79
2022/06/22 06:42:32;;;;;;;0.10;0.10;;;15.70;99.90;;;;;;5113482;28;20040;-79
2022/06/22 06:45:00;;;;;;;0.10;0.00;;;15.70;99.90;;;;;;5093381;28;20096;-79
2022/06/22 06:47:33;;;;;;;0.00;0.00;;;15.70;99.90;;;;;;5113543;28;20130;-80
2022/06/22 06:50:08;;;;;;;0.00;0.00;;;15.70;99.90;;;;;;5113743;28;20090;-80
2022/06/22 06:52:44;;;;;;;0.00;0.00;;;15.80;99.90;;;;;;5079761;28;20090;-80
2022/06/22 06:55:24;;;;;;;0.00;0.00;;;15.80;99.90;;;;;;5112900;28;20090;-80
2022/06/22 06:58:01;;;;;;;0.00;0.00;;;15.90;99.90;;;;;;5113389;28;20079;-79
2022/06/22 07:00:28;;;;;;;0.00;0.00;;;16.00;99.90;;;;;;5079682;28;20066;-80
2022/06/22 07:02:55;;;;;;;0.00;0.00;;;16.10;99.90;;;;;;5113197;28;20044;-80
2022/06/22 07:05:23;;;;;;;0.00;0.00;;;16.10;99.90;;;;;;5079412;28;20139;-80
2022/06/22 07:07:54;;;;;;;0.00;0.00;;;16.20;99.90;;;;;;5113343;28;20051;-80
2022/06/22 07:10:43;;;;;;;0.00;0.00;;;16.30;99.90;;;;;;5078633;28;20071;-79
2022/06/22 07:13:41;;;;;;;0.00;0.00;;;16.40;99.90;;;;;;5079485;28;20055;-80
2022/06/22 07:16:14;;;;;;;0.00;0.00;;;16.50;99.90;;;;;;5078585;28;20060;-79
2022/06/22 07:18:44;;;;;;;0.00;0.00;;;16.60;99.90;;;;;;5096438;28;20047;-79
2022/06/22 07:21:22;;;;;;;0.00;0.00;;;16.70;99.90;;;;;;5083529;28;20403;-80
2022/06/22 07:24:11;;;;;;;0.00;0.00;;;16.70;99.90;;;;;;5117138;28;20456;-79
2022/06/22 07:27:05;;;;;;;0.00;0.00;;;16.80;99.90;;;;;;5038563;28;20399;-80
2022/06/22 07:29:33;;;;;;;0.00;0.00;;;17.00;99.90;;;;;;5022086;28;20567;-80
2022/06/22 07:32:04;;;;;;;0.95;0.10;;;17.10;99.90;;;;;;5038566;28;20532;-80
2022/06/22 07:34:39;;;;;;;0.00;0.00;;;17.20;99.90;;;;;;5038889;28;20130;-80
2022/06/22 07:37:20;;;;;;;0.00;0.00;;;17.40;99.90;;;;;;5037970;28;20465;-78
2022/06/22 07:39:53;;;;;;;0.00;0.00;;;17.50;99.90;;;;;;5038383;28;20207;-81
2022/06/22 07:42:20;;;;;;;0.00;0.00;;;17.70;99.90;;;;;;5037271;28;20061;-81
2022/06/22 07:44:46;;;;;;;0.00;0.00;;;17.80;99.90;;;;;;5038411;28;20065;-81
2022/06/22 07:47:24;;;;;;;0.30;0.20;;;17.90;99.90;;;;;;5038114;28;20037;-80
2022/06/22 07:50:23;;;;;;;0.00;0.00;;;18.00;99.90;;;;;;5038290;28;20140;-80
2022/06/22 07:53:12;;;;;;;0.00;0.00;;;18.20;99.90;;;;;;4959626;28;20054;-80
2022/06/22 07:56:01;;;;;;;0.10;0.00;;;18.40;99.90;;;;;;4943500;28;20063;-80
2022/06/22 07:58:35;;;;;;;0.00;0.00;;;18.40;99.90;;;;;;4959878;28;20142;-80
2022/06/22 08:01:08;;;;;;;0.00;0.00;;;18.50;99.90;;;;;;4959436;28;20093;-80
2022/06/22 08:03:44;;;;;;;0.00;0.00;;;18.60;99.90;;;;;;4978506;28;20058;-80
2022/06/22 08:06:15;;;;;;;0.00;0.00;;;18.50;99.90;;;;;;4998687;28;20050;-80
2022/06/22 08:09:16;;;;;;;0.00;0.00;;;18.60;99.90;;;;;;4998076;28;20433;-80
2022/06/22 08:12:10;;;;;;;0.00;0.00;;;18.70;99.90;;;;;;4998502;28;20077;-80
2022/06/22 08:14:43;;;;;;;0.00;0.00;;;18.80;99.90;;;;;;4998186;28;20045;-80
2022/06/22 08:17:31;;;;;;;0.15;0.08;;;18.80;99.90;;;;;;4997922;28;20050;-81
2022/06/22 08:19:57;;;;;;;0.00;0.00;;;18.90;99.90;;;;;;4998274;28;20042;-80
2022/06/22 08:22:22;;;;;;;0.00;0.00;;;19.10;99.90;;;;;;4998017;28;20121;-80
2022/06/22 08:24:55;;;;;;;0.00;0.00;;;19.10;99.90;;;;;;4998388;28;20045;-80
2022/06/22 08:27:23;;;;;;;0.00;0.00;;;19.20;99.90;;;;;;4997881;28;20061;-80
2022/06/22 08:29:51;;;;;;;0.10;0.00;;;19.30;99.90;;;;;;5075986;28;20377;-81
2022/06/22 08:32:24;;;;;;;0.00;0.00;;;19.40;99.90;;;;;;5081641;28;20044;-80
2022/06/22 08:34:56;;;;;;;0.00;0.00;;;19.40;99.00;;;;;;5081901;28;20475;-80
2022/06/22 08:37:38;;;;;;;0.00;0.00;;;19.50;99.80;;;;;;5115125;28;20386;-80
2022/06/22 08:40:32;;;;;;;0.08;0.08;;;19.60;99.00;;;;;;5115372;28;20043;-81
2022/06/22 08:43:13;;;;;;;0.35;0.35;;;19.70;99.60;;;;;;5115719;28;20407;-81
2022/06/22 08:46:18;;;;;;;0.00;0.00;;;19.80;97.60;;;;;;5115208;28;20049;-81
2022/06/22 08:49:10;;;;;;;0.00;0.00;;;19.90;98.30;;;;;;5036879;28;20064;-81
2022/06/22 08:52:11;;;;;;;0.00;0.00;;;20.00;97.30;;;;;;5037233;28;20052;-80
2022/06/22 08:55:07;;;;;;;0.00;0.00;;;20.10;96.70;;;;;;5036535;28;20054;-81
2022/06/22 08:57:58;;;;;;;0.00;0.00;;;20.10;95.30;;;;;;5036756;28;20048;-81
2022/06/22 09:01:01;;;;;;;0.00;0.00;;;20.20;96.30;;;;;;5036617;28;20095;-81
2022/06/22 09:03:44;;;;;;;0.00;0.00;;;20.20;96.30;;;;;;4958359;28;20197;-80
2022/06/22 09:06:38;;;;;;;0.00;0.00;;;20.40;95.50;;;;;;4958393;28;20063;-81
2022/06/22 09:09:31;;;;;;;0.28;0.10;;;20.60;95.40;;;;;;4971951;28;20046;-80
2022/06/22 09:12:05;;;;;;;0.00;0.00;;;20.60;94.80;;;;;;4941476;28;20406;-81
2022/06/22 09:14:37;;;;;;;0.00;0.00;;;20.80;94.60;;;;;;4970960;28;20182;-80
2022/06/22 09:17:39;;;;;;;0.00;0.00;;;20.90;91.10;;;;;;4974268;28;20054;-80
2022/06/22 09:20:33;;;;;;;0.00;0.00;;;21.10;93.70;;;;;;4971335;28;20059;-81
2022/06/22 09:23:26;;;;;;;0.00;0.00;;;21.20;91.70;;;;;;4977496;28;20113;-81
2022/06/22 09:26:08;;;;;;;0.00;0.00;;;21.30;92.80;;;;;;4980622;28;20064;-80
2022/06/22 09:28:45;;;;;;;0.00;0.00;;;21.40;92.20;;;;;;5000230;28;20536;-79
2022/06/22 09:31:33;;;;;;;0.00;0.00;;;21.50;91.30;;;;;;5016614;28;20053;-80
2022/06/22 09:34:08;;;;;;;0.10;0.10;;;21.50;87.20;;;;;;5016293;28;20370;-78
2022/06/22 09:37:10;;;;;;;0.00;0.00;;;21.60;91.50;;;;;;5000222;28;20063;-78
2022/06/22 09:39:45;;;;;;;0.00;0.00;;;21.80;90.30;;;;;;5090595;27;20111;-78
2022/06/22 09:42:44;;;;;;;0.00;0.00;;;21.90;86.30;;;;;;5099244;27;20073;-78
2022/06/22 09:45:12;;;;;;;0.00;0.00;;;22.00;87.00;;;;;;5135250;27;20043;-78
2022/06/22 09:47:50;;;;;;;0.00;0.00;;;22.30;86.40;;;;;;5100658;27;20043;-78
2022/06/22 09:50:37;;;;;;;0.00;0.00;;;22.30;82.00;;;;;;5117228;27;20080;-79
2022/06/22 09:53:32;;;;;;;0.03;0.00;;;22.50;82.10;;;;;;5134298;27;20043;-79
2022/06/22 09:56:22;;;;;;;;;;;22.40;75.90;;;;;;5117754;27;20070;-79
2022/06/22 09:59:07;;;;;;;0.00;0.00;;;22.50;78.30;;;;;;5116944;27;19927;-79
2022/06/22 10:01:56;;;;;;;0.10;0.00;;;22.60;79.70;;;;;;5116960;27;20066;-79
2022/06/22 10:04:50;;;;;;;0.00;0.00;;;22.70;77.40;;;;;;5117281;27;20043;-79
2022/06/22 10:07:34;;;;;;;0.80;0.10;;;22.90;78.50;;;;;;5098924;27;20502;-79
2022/06/22 10:10:37;;;;;;;0.00;0.00;;;23.00;75.90;;;;;;5117230;27;20047;-79
2022/06/22 10:13:39;;;;;;;0.03;0.00;;;23.10;74.60;;;;;;5116903;27;20134;-80
2022/06/22 10:16:44;;;;;;;0.00;0.00;;;23.00;74.40;;;;;;5099659;27;20406;-80
2022/06/22 10:19:29;;;;;;;0.00;0.00;;;23.20;75.20;;;;;;5117345;27;20043;-80
2022/06/22 10:22:38;;;;;;;0.05;0.00;;;23.40;72.90;;;;;;5099816;27;20047;-80
2022/06/22 10:25:30;;;;;;;0.70;0.20;;;23.40;75.20;;;;;;5100287;28;20043;-80
2022/06/22 10:28:13;;;;;;;0.00;0.00;;;23.50;71.50;;;;;;5099622;27;20103;-80
2022/06/22 10:31:03;;;;;;;0.00;0.00;;;23.70;73.60;;;;;;5100181;28;20047;-80
2022/06/22 10:33:54;;;;;;;0.00;0.00;;;23.70;68.00;;;;;;5099551;27;20047;-80
2022/06/22 10:36:42;;;;;;;0.00;0.00;;;23.90;72.50;;;;;;5116505;27;20145;-82
2022/06/22 10:39:36;;;;;;;0.00;0.00;;;24.10;72.10;;;;;;5116800;28;20039;-82
2022/06/22 10:45:34;;;;;;;0.10;0.00;;;24.40;69.50;;;;;;5116321;28;20043;-81
2022/06/22 10:48:37;;;;;;;0.00;0.00;;;24.60;70.80;;;;;;5116393;28;20047;-81
2022/06/22 10:51:34;;;;;;;0.00;0.00;;;24.80;70.70;;;;;;5116282;28;20538;-82
2022/06/22 10:54:38;;;;;;;0.00;0.00;;;24.80;72.40;;;;;;5116930;27;20070;-81
2022/06/22 10:57:20;;;;;;;0.00;0.00;;;25.00;67.80;;;;;;5120464;27;20043;-80
2022/06/22 11:00:09;;;;;;;0.00;0.00;;;25.00;69.50;;;;;;5120670;27;20554;-81
2022/06/22 11:02:52;;;;;;;0.00;0.00;;;25.00;65.40;;;;;;5120711;27;20108;-82
2022/06/22 11:05:29;;;;;;;0.00;0.00;;;25.10;66.40;;;;;;5120787;27;20047;-81
2022/06/22 11:08:13;;;;;;;0.00;0.00;;;25.20;64.00;;;;;;5103483;27;20107;-81
2022/06/22 11:10:54;;;;;;;0.00;0.00;;;25.40;64.60;;;;;;5103849;27;20100;-81
2022/06/22 11:13:32;;;;;;;0.00;0.00;;;25.50;66.10;;;;;;5120376;27;20047;-81
2022/06/22 11:16:04;;;;;;;0.03;0.00;;;25.50;65.10;;;;;;5120467;27;20050;-81
2022/06/22 11:18:36;;;;;;;0.00;0.00;;;25.50;65.00;;;;;;5120232;27;20039;-81
2022/06/22 11:21:12;;;;;;;0.00;0.00;;;25.60;65.20;;;;;;5103382;27;20101;-81
2022/06/22 11:24:15;;;;;;;0.00;0.00;;;25.70;69.80;;;;;;5102868;27;20055;-81
2022/06/22 11:33:08;;;;;;;0.00;0.00;;;25.80;66.20;;;;;;5119975;27;20099;-81
2022/06/22 11:35:54;;;;;;;0.00;0.00;;;25.90;64.90;;;;;;5102969;27;20078;-81
2022/06/22 11:38:57;;;;;;;0.00;0.00;;;25.90;64.00;;;;;;5120256;27;20432;-81
2022/06/22 11:42:00;;;;;;;0.00;0.00;;;25.90;64.00;;;;;;5119596;27;20039;-81
2022/06/22 11:45:49;;;;;;;0.00;0.00;;;26.10;65.90;;;;;;5119647;27;20047;-81
2022/06/22 11:48:01;;;;;;;0.00;0.00;;;26.20;62.80;;;;;;5119883;27;20051;-81
2022/06/22 11:50:52;;;;;;;0.00;0.00;;;26.30;64.40;;;;;;5102869;27;20047;-81
2022/06/22 11:53:24;;;;;;;0.00;0.00;;;26.40;64.30;;;;;;5119714;27;20035;-81
2022/06/22 11:55:55;;;;;;;0.00;0.00;;;26.50;58.50;;;;;;5118029;28;20452;-81
2022/06/22 11:58:36;;;;;;;0.00;0.00;;;26.40;60.90;;;;;;5118550;28;20036;-81
2022/06/22 12:01:22;;;;;;;0.00;0.00;;;26.50;59.10;;;;;;5101494;28;20429;-81
2022/06/22 12:04:06;;;;;;;0.00;0.00;;;26.50;59.50;;;;;;5101198;28;20085;-81
2022/06/22 12:06:53;;;;;;;0.00;0.00;;;26.50;57.00;;;;;;5100224;28;20047;-81
2022/06/22 12:09:56;;;;;;;0.00;0.00;;;26.50;59.90;;;;;;5118127;28;20047;-80
2022/06/22 12:12:31;;;;;;;0.00;0.00;;;26.70;58.10;;;;;;5117990;28;20047;-79
2022/06/22 12:15:18;;;;;;;0.00;0.00;;;26.70;59.10;;;;;;5118809;28;20047;-80
2022/06/22 12:18:11;;;;;;;0.00;0.00;;;26.70;57.30;;;;;;5101123;28;20046;-80
2022/06/22 12:20:43;;;;;;;0.00;0.00;;;26.80;57.10;;;;;;5118108;28;20047;-80
2022/06/22 12:23:36;;;;;;;0.00;0.00;;;26.90;59.70;;;;;;5100912;28;20077;-80
2022/06/22 12:26:12;;;;;;;0.00;0.00;;;27.00;58.80;;;;;;5101164;28;20143;-79
2022/06/22 12:28:41;;;;;;;0.00;0.00;;;27.00;59.30;;;;;;5101107;28;20091;-80
2022/06/22 12:31:15;;;;;;;0.00;0.00;;;27.10;55.80;;;;;;5117842;28;20066;-80
2022/06/22 12:33:54;;;;;;;0.00;0.00;;;27.20;58.40;;;;;;5118506;28;20139;-80
2022/06/22 12:36:28;;;;;;;0.00;0.00;;;27.20;58.50;;;;;;5100576;28;20130;-80
2022/06/22 12:39:04;;;;;;;0.00;0.00;;;27.10;54.70;;;;;;5117816;28;20500;-80
2022/06/22 12:42:04;;;;;;;0.00;0.00;;;27.00;58.50;;;;;;5117587;28;20039;-79
2022/06/22 12:44:58;;;;;;;0.30;0.05;;;27.00;56.30;;;;;;5117712;28;20051;-80
2022/06/22 12:47:31;;;;;;;0.22;0.22;;;27.00;57.00;;;;;;5117656;28;20047;-80
2022/06/22 12:50:27;;;;;;;0.00;0.00;;;27.10;55.90;;;;;;5117430;28;20133;-80
2022/06/22 12:53:04;;;;;;;0.00;0.00;;;27.20;55.70;;;;;;5100887;28;20066;-80
2022/06/22 12:55:41;;;;;;;0.00;0.00;;;27.30;57.10;;;;;;5072956;27;1261789;-81
2022/06/22 12:58:28;;;;;;;0.00;0.00;;;27.30;53.00;;;;;;5100458;27;20456;-80
2022/06/22 13:00:58;;;;;;;0.00;0.00;;;27.30;54.80;;;;;;5118446;27;20086;-80
2022/06/22 13:03:32;;;;;;;0.00;0.00;;;27.40;55.50;;;;;;5118259;27;20035;-80
2022/06/22 13:05:58;;;;;;;0.00;0.00;;;27.20;54.70;;;;;;5101235;27;20487;-80
2022/06/22 13:08:27;;;;;;;0.00;0.00;;;27.10;55.10;;;;;;5118092;27;20058;-80
2022/06/22 13:11:01;;;;;;;0.00;0.00;;;27.20;55.20;;;;;;5117998;27;20483;-80
2022/06/22 13:14:00;;;;;;;0.00;0.00;;;27.30;56.50;;;;;;5100819;27;20086;-80
2022/06/22 13:16:31;;;;;;;0.00;0.00;;;27.10;51.60;;;;;;5099242;28;20476;-80
2022/06/22 13:19:22;;;;;;;0.00;0.00;;;27.20;55.80;;;;;;5100665;27;20059;-80
2022/06/22 13:22:04;;;;;;;0.00;0.00;;;27.20;53.40;;;;;;5117610;27;20054;-80
2022/06/22 13:25:05;;;;;;;0.00;0.00;;;27.40;54.00;;;;;;5100327;27;20055;-80
2022/06/22 13:28:19;;;;;;;0.00;0.00;;;27.60;54.20;;;;;;5117686;27;20047;-81
2022/06/22 13:31:03;;;;;;;0.00;0.00;;;27.80;54.40;;;;;;5035688;28;20513;-80
2022/06/22 13:33:40;;;;;;;0.00;0.00;;;27.90;53.80;;;;;;5036045;28;20544;-81
2022/06/22 13:36:28;;;;;;;0.00;0.00;;;27.90;52.20;;;;;;5035683;28;20044;-80
2022/06/22 13:39:01;;;;;;;0.00;0.00;;;27.90;53.30;;;;;;5036300;28;20053;-80
2022/06/22 13:41:57;;;;;;;0.00;0.00;;;27.90;52.30;;;;;;5035969;28;20143;-80
2022/06/22 13:44:41;;;;;;;0.00;0.00;;;27.90;53.20;;;;;;5035624;28;20488;-80
2022/06/22 13:47:09;;;;;;;0.00;0.00;;;28.00;55.10;;;;;;5019219;28;20088;-80
2022/06/22 13:49:59;;;;;;;0.00;0.00;;;27.90;52.40;;;;;;5019324;28;20053;-80
2022/06/22 13:52:41;;;;;;;0.32;0.30;;;27.90;51.60;;;;;;5019206;28;20059;-81
2022/06/22 13:55:24;;;;;;;0.00;0.00;;;28.00;54.50;;;;;;5035286;28;20083;-81
2022/06/22 13:58:18;;;;;;;0.00;0.00;;;27.90;48.80;;;;;;5035674;28;20088;-81
2022/06/22 14:00:53;;;;;;;0.00;0.00;;;27.90;51.30;;;;;;5019089;28;20093;-81
2022/06/22 14:03:37;;;;;;;0.00;0.00;;;28.00;50.90;;;;;;5035453;28;20056;-80
2022/06/22 14:06:11;;;;;;;0.00;0.00;;;27.90;52.50;;;;;;5075632;27;20101;-80
2022/06/22 14:08:58;;;;;;;0.00;0.00;;;28.00;52.10;;;;;;5100066;27;20374;-81
2022/06/22 14:11:53;;;;;;;0.00;0.00;;;28.00;52.80;;;;;;5116929;27;20093;-81